Manley, NE

7:22 AM CDT on October 20, 2014 (GMT -0500)
Southridge | Change Station
CLOSE
Current Station
Personal Weather Station
Location: Louisville, NE
Elevation: 1083 ft
Nearby Weather Stations

Elev 1083 ft 40.99 °N, 96.15 °W | Updated 19 seconds ago

Clear
Clear
44.4 °F
Feels Like 44 °F
N
0.0
Wind Variable Wind from WSW
Gusts 6.0 mph

Today
High -- | Low -- °F
--% Chance of Precip.
Yesterday
High -- | Low -- °F
Precip. -- in
7:41 AM 6:36 PM
Waning Crescent, 11% visible
Pressure 30.03 in
Visibility 10.0 miles
Clouds Clear
Windchill 44 °F
Dew Point 41 °F
Humidity 89%
Rainfall 0.00 in
Snow Depth Not available.
UV 0 out of 12
Pollen 2.80 out of 12
Air Quality Not available.
Flu Activity Sporadic
METAR KPMV 201215Z AUTO 33003KT 10SM CLR 09/07 A3003 RMK AO2 T00860068

More Conditions Fewer Conditions

Pressure 30.03 in
Visibility 10.0 miles
Clouds Clear
Windchill 44 °F
Dew Point 41 °F
Humidity 89%
Rainfall 0.00 in
Snow Depth Not available.
UV 0 out of 12
Pollen 2.80 out of 12
Air Quality Not available.
Flu Activity Sporadic
METAR KPMV 201215Z AUTO 33003KT 10SM CLR 09/07 A3003 RMK AO2 T00860068

More Conditions Fewer Conditions

10-Day Weather Forecast

Almanac

Astronomy

Oct. 20, 2014 Rise Set
Actual Time 7:41 AM CDT 6:36 PM CDT
Civil Twilight 7:13 AM CDT 7:04 PM CDT
Nautical Twilight 6:41 AM CDT 7:36 PM CDT
Astronomical Twilight 6:09 AM CDT 8:08 PM CDT
Moon 4:29 AM CDT 5:01 PM CDT
Length of Visible Light 11h 50m
Length of Day
10h 55m
Waning Crescent, 11% of the Moon is Illuminated
Today
Waning Crescent
Oct 23
New
Oct 30
First Quarter
Nov 6
Full
Nov 14
Last Quarter

Today's Extremes

State Highs State Lows

Community

WunderPhotos

Upload Photos

1,763,349 photos uploaded!

WunderBlogs® & News

Nearby

Snow Depth

Station Depth Elevation
No new snow has been reported.

Earthquake Activity

City Distance Mag. Time & Date
No recent earthquake activity has been reported nearby.
Minimum magnitude displayed is 2.5.

Coastal Water Temperatures

Place Temperature
No Stations Reporting

Nearby Weather Stations